AAL3306 KMIA-KSEA
Flight info
| Callsign | AAL3306 |
|---|---|
| Flight time | N/A |
| Altitude | 38000 |
| Route | HURCN4 SMELZ Q116 JAWJA MGM IGB UJM OSW HLC MBW DBS PDT CHINS5 |
| Aircraft | B38M/M-SDE1FGHILORVWXY/HB1 |
Departure
| Time | N/A |
|---|---|
| Airport | Miami International Airport (KMIA) |
Arrival
| Time | 2026-05-04 02:39 |
|---|---|
| Airport | Seattle–Tacoma International Airport (KSEA) |
| Time | Latitude | Longitude | Altitude | Speed | Heading |
|---|---|---|---|---|---|
| 2026-05-04 00:23 | 40.98970 | -103.96744 | 37915 ft | 393 kts | 298° |
| 2026-05-04 00:23 | 41.00347 | -103.99913 | 37893 ft | 393 kts | 298° |
| 2026-05-04 00:24 | 41.03067 | -104.06185 | 37888 ft | 393 kts | 298° |
| 2026-05-04 00:24 | 41.05783 | -104.12461 | 37899 ft | 393 kts | 298° |
| 2026-05-04 00:25 | 41.08498 | -104.18745 | 37879 ft | 393 kts | 298° |
| 2026-05-04 00:25 | 41.10751 | -104.23971 | 37898 ft | 393 kts | 298° |
| 2026-05-04 00:26 | 41.13452 | -104.30249 | 37862 ft | 392 kts | 298° |
| 2026-05-04 00:26 | 41.16587 | -104.37551 | 37865 ft | 392 kts | 298° |
| 2026-05-04 00:27 | 41.19281 | -104.43841 | 37884 ft | 392 kts | 298° |
| 2026-05-04 00:27 | 41.21536 | -104.49117 | 37893 ft | 392 kts | 298° |
| 2026-05-04 00:28 | 41.24226 | -104.55421 | 37910 ft | 392 kts | 298° |
| 2026-05-04 00:28 | 41.26893 | -104.61684 | 37937 ft | 392 kts | 298° |
| 2026-05-04 00:29 | 41.29577 | -104.68001 | 37934 ft | 393 kts | 298° |
| 2026-05-04 00:29 | 41.32262 | -104.74333 | 37931 ft | 393 kts | 298° |
| 2026-05-04 00:30 | 41.34940 | -104.80664 | 37927 ft | 393 kts | 298° |
| 2026-05-04 00:30 | 41.37618 | -104.87007 | 37913 ft | 393 kts | 298° |
| 2026-05-04 00:31 | 41.40291 | -104.93349 | 37883 ft | 393 kts | 298° |
| 2026-05-04 00:31 | 41.42971 | -104.99723 | 37896 ft | 395 kts | 298° |
| 2026-05-04 00:32 | 41.45655 | -105.06124 | 37874 ft | 396 kts | 298° |
| 2026-05-04 00:32 | 41.48341 | -105.12538 | 37868 ft | 396 kts | 298° |
| 2026-05-04 00:33 | 41.52359 | -105.22163 | 37873 ft | 396 kts | 298° |
| 2026-05-04 00:34 | 41.55035 | -105.28590 | 37868 ft | 396 kts | 298° |
| 2026-05-04 00:34 | 41.57711 | -105.35031 | 37871 ft | 397 kts | 297° |
| 2026-05-04 00:35 | 41.60368 | -105.41440 | 37866 ft | 397 kts | 297° |
| 2026-05-04 00:35 | 41.63040 | -105.47896 | 37871 ft | 397 kts | 297° |
| 2026-05-04 00:36 | 41.65712 | -105.54363 | 37851 ft | 397 kts | 297° |
| 2026-05-04 00:36 | 41.68381 | -105.60838 | 37845 ft | 397 kts | 297° |
| 2026-05-04 00:37 | 41.71045 | -105.67315 | 37848 ft | 397 kts | 297° |
| 2026-05-04 00:37 | 41.73708 | -105.73803 | 37850 ft | 398 kts | 297° |
| 2026-05-04 00:38 | 41.76369 | -105.80300 | 37855 ft | 398 kts | 297° |
| 2026-05-04 00:38 | 41.79026 | -105.86800 | 37850 ft | 398 kts | 297° |
| 2026-05-04 00:39 | 41.81680 | -105.93308 | 37848 ft | 398 kts | 297° |
| 2026-05-04 00:39 | 41.84322 | -105.99811 | 37835 ft | 398 kts | 296° |
| 2026-05-04 00:40 | 41.86940 | -106.06370 | 37852 ft | 400 kts | 296° |
| 2026-05-04 00:40 | 41.89575 | -106.12943 | 37858 ft | 400 kts | 296° |
| 2026-05-04 00:41 | 41.92207 | -106.19518 | 37852 ft | 400 kts | 296° |
| 2026-05-04 00:41 | 41.94837 | -106.26103 | 37855 ft | 400 kts | 296° |
| 2026-05-04 00:42 | 41.97445 | -106.32646 | 37853 ft | 400 kts | 296° |
| 2026-05-04 00:42 | 42.00067 | -106.39240 | 37848 ft | 401 kts | 296° |
| 2026-05-04 00:43 | 42.02694 | -106.45860 | 37860 ft | 401 kts | 296° |
| 2026-05-04 00:43 | 42.05320 | -106.52492 | 37863 ft | 402 kts | 296° |
| 2026-05-04 00:44 | 42.07946 | -106.59141 | 37859 ft | 402 kts | 296° |
| 2026-05-04 00:44 | 42.10570 | -106.65801 | 37867 ft | 403 kts | 296° |
| 2026-05-04 00:45 | 42.13190 | -106.72464 | 37859 ft | 402 kts | 296° |
| 2026-05-04 00:45 | 42.15809 | -106.79140 | 37856 ft | 403 kts | 296° |
| 2026-05-04 00:46 | 42.18424 | -106.85822 | 37874 ft | 403 kts | 296° |
| 2026-05-04 00:46 | 42.21040 | -106.92522 | 37862 ft | 404 kts | 296° |
| 2026-05-04 00:47 | 42.23654 | -106.99232 | 37857 ft | 404 kts | 296° |
| 2026-05-04 00:47 | 42.26263 | -107.05944 | 37826 ft | 404 kts | 296° |
| 2026-05-04 00:48 | 42.28874 | -107.12678 | 37858 ft | 405 kts | 296° |
| 2026-05-04 00:48 | 42.31477 | -107.19406 | 37855 ft | 405 kts | 296° |
| 2026-05-04 00:49 | 42.34083 | -107.26160 | 37855 ft | 406 kts | 296° |
| 2026-05-04 00:49 | 42.36690 | -107.32931 | 37857 ft | 406 kts | 296° |
| 2026-05-04 00:50 | 42.39296 | -107.39715 | 37857 ft | 406 kts | 296° |
| 2026-05-04 00:50 | 42.41877 | -107.46451 | 37861 ft | 408 kts | 296° |
| 2026-05-04 00:51 | 42.44484 | -107.53268 | 37857 ft | 408 kts | 296° |
| 2026-05-04 00:51 | 42.47084 | -107.60085 | 37863 ft | 408 kts | 296° |
| 2026-05-04 00:52 | 42.49689 | -107.66932 | 37856 ft | 409 kts | 296° |
| 2026-05-04 00:52 | 42.52291 | -107.73788 | 37849 ft | 409 kts | 296° |
| 2026-05-04 00:53 | 42.54897 | -107.80670 | 37847 ft | 411 kts | 296° |
| 2026-05-04 00:53 | 42.57507 | -107.87579 | 37842 ft | 412 kts | 296° |
| 2026-05-04 00:54 | 42.60113 | -107.94495 | 37837 ft | 411 kts | 296° |
| 2026-05-04 00:54 | 42.62718 | -108.01425 | 37835 ft | 412 kts | 296° |
| 2026-05-04 00:55 | 42.65323 | -108.08371 | 37820 ft | 413 kts | 296° |
| 2026-05-04 00:55 | 42.67923 | -108.15323 | 37821 ft | 413 kts | 296° |
| 2026-05-04 00:56 | 42.70518 | -108.22275 | 37801 ft | 413 kts | 296° |
| 2026-05-04 00:56 | 42.73110 | -108.29240 | 37813 ft | 412 kts | 296° |
| 2026-05-04 00:57 | 42.75700 | -108.36213 | 37825 ft | 414 kts | 296° |
| 2026-05-04 00:57 | 42.78295 | -108.43222 | 37848 ft | 415 kts | 296° |
| 2026-05-04 00:58 | 42.80886 | -108.50232 | 37886 ft | 414 kts | 296° |
| 2026-05-04 00:58 | 42.83472 | -108.57248 | 37908 ft | 414 kts | 296° |
| 2026-05-04 00:59 | 42.86051 | -108.64263 | 37920 ft | 414 kts | 296° |
| 2026-05-04 00:59 | 42.88625 | -108.71279 | 37908 ft | 415 kts | 296° |
| 2026-05-04 01:00 | 42.91212 | -108.78354 | 37765 ft | 418 kts | 296° |
| 2026-05-04 01:00 | 42.93796 | -108.85436 | 37810 ft | 417 kts | 296° |
| 2026-05-04 01:01 | 42.96375 | -108.92521 | 37804 ft | 417 kts | 296° |
| 2026-05-04 01:01 | 42.98951 | -108.99618 | 37836 ft | 417 kts | 296° |
| 2026-05-04 01:02 | 43.01507 | -109.06673 | 37822 ft | 418 kts | 296° |
| 2026-05-04 01:02 | 43.04086 | -109.13813 | 37851 ft | 420 kts | 296° |
| 2026-05-04 01:03 | 43.06664 | -109.20972 | 37856 ft | 419 kts | 296° |
| 2026-05-04 01:03 | 43.09233 | -109.28119 | 37891 ft | 419 kts | 296° |
| 2026-05-04 01:04 | 43.11800 | -109.35281 | 37879 ft | 419 kts | 295° |
| 2026-05-04 01:04 | 43.14363 | -109.42450 | 37926 ft | 420 kts | 296° |
| 2026-05-04 01:05 | 43.16923 | -109.49631 | 37918 ft | 419 kts | 295° |
| 2026-05-04 01:05 | 43.19473 | -109.56798 | 37939 ft | 418 kts | 295° |
| 2026-05-04 01:06 | 43.22016 | -109.63968 | 37942 ft | 419 kts | 295° |
| 2026-05-04 01:06 | 43.24557 | -109.71149 | 37972 ft | 419 kts | 295° |
| 2026-05-04 01:07 | 43.27093 | -109.78333 | 37962 ft | 419 kts | 295° |
| 2026-05-04 01:07 | 43.29637 | -109.85562 | 37976 ft | 421 kts | 295° |
| 2026-05-04 01:08 | 43.32177 | -109.92798 | 37975 ft | 421 kts | 295° |
| 2026-05-04 01:08 | 43.34716 | -110.00051 | 37972 ft | 421 kts | 295° |
| 2026-05-04 01:09 | 43.37251 | -110.07308 | 37962 ft | 421 kts | 295° |
| 2026-05-04 01:09 | 43.39784 | -110.14578 | 37958 ft | 422 kts | 295° |
| 2026-05-04 01:10 | 43.42322 | -110.21887 | 37967 ft | 426 kts | 295° |
| 2026-05-04 01:10 | 43.44866 | -110.29232 | 37961 ft | 425 kts | 295° |
| 2026-05-04 01:11 | 43.47405 | -110.36581 | 37967 ft | 425 kts | 295° |
| 2026-05-04 01:11 | 43.49932 | -110.43913 | 37962 ft | 424 kts | 295° |
| 2026-05-04 01:12 | 43.52439 | -110.51209 | 37969 ft | 425 kts | 295° |
| 2026-05-04 01:12 | 43.54968 | -110.58590 | 37970 ft | 426 kts | 295° |
| 2026-05-04 01:13 | 43.57496 | -110.65986 | 37972 ft | 427 kts | 295° |
| 2026-05-04 01:13 | 43.60022 | -110.73396 | 38007 ft | 427 kts | 295° |
| 2026-05-04 01:14 | 43.62541 | -110.80808 | 38009 ft | 427 kts | 295° |
| 2026-05-04 01:14 | 43.65054 | -110.88218 | 37978 ft | 427 kts | 295° |
| 2026-05-04 01:15 | 43.67576 | -110.95679 | 38016 ft | 430 kts | 295° |
| 2026-05-04 01:15 | 43.69672 | -111.01894 | 38029 ft | 429 kts | 295° |
| 2026-05-04 01:16 | 43.72189 | -111.09381 | 38023 ft | 430 kts | 295° |
| 2026-05-04 01:16 | 43.74700 | -111.16865 | 38025 ft | 430 kts | 295° |
| 2026-05-04 01:17 | 43.77210 | -111.24367 | 38023 ft | 430 kts | 295° |
| 2026-05-04 01:17 | 43.79725 | -111.31910 | 37998 ft | 433 kts | 295° |
| 2026-05-04 01:18 | 43.82239 | -111.39471 | 37957 ft | 432 kts | 295° |
| 2026-05-04 01:18 | 43.84747 | -111.47031 | 37936 ft | 433 kts | 295° |
| 2026-05-04 01:19 | 43.87256 | -111.54617 | 37897 ft | 433 kts | 295° |
| 2026-05-04 01:19 | 43.89763 | -111.62210 | 37923 ft | 433 kts | 295° |
| 2026-05-04 01:20 | 43.92266 | -111.69818 | 37934 ft | 434 kts | 295° |
| 2026-05-04 01:20 | 43.94767 | -111.77438 | 37930 ft | 434 kts | 295° |
| 2026-05-04 01:21 | 43.97248 | -111.85015 | 37923 ft | 434 kts | 295° |
| 2026-05-04 01:21 | 43.99739 | -111.92647 | 37901 ft | 434 kts | 295° |
| 2026-05-04 01:22 | 44.02231 | -112.00298 | 37901 ft | 435 kts | 295° |
| 2026-05-04 01:22 | 44.04715 | -112.07952 | 37886 ft | 435 kts | 295° |
| 2026-05-04 01:23 | 44.07200 | -112.15629 | 37870 ft | 435 kts | 295° |
| 2026-05-04 01:23 | 44.09525 | -112.23395 | 37879 ft | 435 kts | 291° |
| 2026-05-04 01:24 | 44.11648 | -112.31283 | 37870 ft | 435 kts | 291° |
| 2026-05-04 01:24 | 44.13801 | -112.39156 | 37874 ft | 435 kts | 291° |
| 2026-05-04 01:25 | 44.15950 | -112.47017 | 37879 ft | 434 kts | 291° |
| 2026-05-04 01:25 | 44.18091 | -112.54867 | 37882 ft | 434 kts | 291° |
| 2026-05-04 01:26 | 44.20230 | -112.62739 | 37891 ft | 435 kts | 291° |
| 2026-05-04 01:26 | 44.22366 | -112.70624 | 37893 ft | 434 kts | 291° |
| 2026-05-04 01:27 | 44.24495 | -112.78508 | 37895 ft | 435 kts | 291° |
| 2026-05-04 01:27 | 44.26607 | -112.86355 | 37895 ft | 435 kts | 291° |
| 2026-05-04 01:28 | 44.28742 | -112.94316 | 37897 ft | 435 kts | 291° |
| 2026-05-04 01:28 | 44.30845 | -113.02179 | 37890 ft | 435 kts | 291° |
| 2026-05-04 01:29 | 44.32956 | -113.10096 | 37891 ft | 436 kts | 291° |
| 2026-05-04 01:29 | 44.35063 | -113.18035 | 37892 ft | 436 kts | 291° |
| 2026-05-04 01:30 | 44.37165 | -113.25974 | 37889 ft | 436 kts | 291° |
| 2026-05-04 01:30 | 44.39263 | -113.33929 | 37880 ft | 436 kts | 291° |
| 2026-05-04 01:31 | 44.41355 | -113.41883 | 37883 ft | 436 kts | 291° |
| 2026-05-04 01:31 | 44.43442 | -113.49844 | 37875 ft | 436 kts | 291° |
| 2026-05-04 01:32 | 44.45512 | -113.57771 | 37882 ft | 437 kts | 291° |
| 2026-05-04 01:32 | 44.47607 | -113.65819 | 37860 ft | 437 kts | 291° |
| 2026-05-04 01:33 | 44.49664 | -113.73748 | 37872 ft | 436 kts | 291° |
| 2026-05-04 01:33 | 44.51729 | -113.81734 | 37877 ft | 436 kts | 291° |
| 2026-05-04 01:34 | 44.53786 | -113.89718 | 37885 ft | 436 kts | 290° |
| 2026-05-04 01:34 | 44.55840 | -113.97717 | 37905 ft | 436 kts | 291° |
| 2026-05-04 01:35 | 44.57887 | -114.05718 | 37905 ft | 435 kts | 291° |
| 2026-05-04 01:35 | 44.59931 | -114.13731 | 37939 ft | 436 kts | 291° |
| 2026-05-04 01:36 | 44.61965 | -114.21735 | 37930 ft | 435 kts | 291° |
| 2026-05-04 01:36 | 44.63996 | -114.29750 | 37923 ft | 437 kts | 290° |
| 2026-05-04 01:37 | 44.66014 | -114.37745 | 37847 ft | 436 kts | 290° |
| 2026-05-04 01:37 | 44.68031 | -114.45768 | 37847 ft | 436 kts | 290° |
| 2026-05-04 01:38 | 44.70049 | -114.53814 | 37841 ft | 436 kts | 290° |
| 2026-05-04 01:38 | 44.72062 | -114.61878 | 37856 ft | 438 kts | 290° |
| 2026-05-04 01:39 | 44.74076 | -114.69969 | 37859 ft | 439 kts | 290° |
| 2026-05-04 01:39 | 44.76079 | -114.78047 | 37852 ft | 435 kts | 290° |
| 2026-05-04 01:40 | 44.78064 | -114.86081 | 37841 ft | 435 kts | 290° |
| 2026-05-04 01:40 | 44.80050 | -114.94140 | 37850 ft | 438 kts | 290° |
| 2026-05-04 01:41 | 44.82037 | -115.02231 | 37851 ft | 436 kts | 290° |
| 2026-05-04 01:41 | 44.84002 | -115.10276 | 37848 ft | 433 kts | 290° |
| 2026-05-04 01:42 | 44.85963 | -115.18322 | 37867 ft | 437 kts | 290° |
| 2026-05-04 01:42 | 44.87932 | -115.26434 | 37869 ft | 438 kts | 290° |
| 2026-05-04 01:43 | 44.89900 | -115.34567 | 37892 ft | 438 kts | 290° |
| 2026-05-04 01:43 | 44.91860 | -115.42694 | 37903 ft | 440 kts | 290° |
| 2026-05-04 01:44 | 44.93811 | -115.50810 | 37898 ft | 438 kts | 290° |
| 2026-05-04 01:44 | 44.95771 | -115.59006 | 37913 ft | 437 kts | 290° |
| 2026-05-04 01:45 | 44.97703 | -115.67109 | 37930 ft | 441 kts | 290° |
| 2026-05-04 01:45 | 45.00630 | -115.79436 | 37934 ft | 441 kts | 290° |
| 2026-05-04 01:46 | 45.02570 | -115.87653 | 37929 ft | 441 kts | 290° |
| 2026-05-04 01:46 | 45.04511 | -115.95904 | 37946 ft | 443 kts | 290° |
| 2026-05-04 01:47 | 45.06449 | -116.04160 | 37947 ft | 442 kts | 290° |
| 2026-05-04 01:47 | 45.08375 | -116.12410 | 37940 ft | 441 kts | 290° |
| 2026-05-04 01:48 | 45.10294 | -116.20661 | 37928 ft | 442 kts | 290° |
| 2026-05-04 01:48 | 45.12213 | -116.28946 | 37929 ft | 445 kts | 290° |
| 2026-05-04 01:49 | 45.14143 | -116.37287 | 37944 ft | 447 kts | 290° |
| 2026-05-04 01:49 | 45.16062 | -116.45663 | 37925 ft | 447 kts | 290° |
| 2026-05-04 01:50 | 45.17991 | -116.54032 | 37932 ft | 447 kts | 290° |
| 2026-05-04 01:50 | 45.19904 | -116.62417 | 37926 ft | 447 kts | 290° |
| 2026-05-04 01:51 | 45.21810 | -116.70794 | 37919 ft | 447 kts | 290° |
| 2026-05-04 01:51 | 45.23707 | -116.79171 | 37928 ft | 451 kts | 290° |
| 2026-05-04 01:52 | 45.25621 | -116.87649 | 37927 ft | 451 kts | 290° |
| 2026-05-04 01:52 | 45.27525 | -116.96124 | 37927 ft | 450 kts | 289° |
| 2026-05-04 01:53 | 45.29419 | -117.04577 | 37926 ft | 450 kts | 290° |
| 2026-05-04 01:53 | 45.31309 | -117.13062 | 37936 ft | 450 kts | 289° |
| 2026-05-04 01:54 | 45.33194 | -117.21547 | 37980 ft | 451 kts | 290° |
| 2026-05-04 01:54 | 45.35080 | -117.30081 | 37982 ft | 452 kts | 289° |
| 2026-05-04 01:55 | 45.36961 | -117.38611 | 37994 ft | 454 kts | 290° |
| 2026-05-04 01:55 | 45.38844 | -117.47205 | 37962 ft | 455 kts | 290° |
| 2026-05-04 01:56 | 45.40719 | -117.55778 | 37954 ft | 453 kts | 289° |
| 2026-05-04 01:56 | 45.42585 | -117.64357 | 37924 ft | 454 kts | 290° |
| 2026-05-04 01:57 | 45.44433 | -117.72888 | 37932 ft | 455 kts | 290° |
| 2026-05-04 01:57 | 45.46287 | -117.81482 | 37915 ft | 452 kts | 289° |
| 2026-05-04 01:58 | 45.48128 | -117.90043 | 37913 ft | 451 kts | 289° |
| 2026-05-04 01:58 | 45.49961 | -117.98607 | 37910 ft | 452 kts | 289° |
| 2026-05-04 01:59 | 45.51787 | -118.07169 | 37911 ft | 452 kts | 289° |
| 2026-05-04 01:59 | 45.53613 | -118.15775 | 37904 ft | 454 kts | 289° |
| 2026-05-04 02:00 | 45.55437 | -118.24398 | 37924 ft | 455 kts | 289° |
| 2026-05-04 02:00 | 45.57254 | -118.33034 | 37943 ft | 454 kts | 289° |
| 2026-05-04 02:01 | 45.59062 | -118.41659 | 37935 ft | 454 kts | 289° |
| 2026-05-04 02:01 | 45.60867 | -118.50306 | 37916 ft | 454 kts | 289° |
| 2026-05-04 02:02 | 45.62669 | -118.58972 | 37905 ft | 456 kts | 289° |
| 2026-05-04 02:02 | 45.64466 | -118.67661 | 37886 ft | 456 kts | 289° |
| 2026-05-04 02:03 | 45.66256 | -118.76346 | 37883 ft | 456 kts | 289° |
| 2026-05-04 02:03 | 45.68031 | -118.84994 | 37887 ft | 456 kts | 289° |
| 2026-05-04 02:04 | 45.70127 | -118.93493 | 37873 ft | 449 kts | 305° |
| 2026-05-04 02:04 | 45.73919 | -119.00510 | 37851 ft | 447 kts | 312° |
| 2026-05-04 02:05 | 45.77865 | -119.07346 | 37843 ft | 445 kts | 313° |
| 2026-05-04 02:05 | 45.81856 | -119.14135 | 37839 ft | 445 kts | 314° |
| 2026-05-04 02:06 | 45.85858 | -119.20924 | 37844 ft | 447 kts | 314° |
| 2026-05-04 02:06 | 45.89870 | -119.27738 | 37839 ft | 446 kts | 314° |
| 2026-05-04 02:07 | 45.93853 | -119.34530 | 37843 ft | 445 kts | 314° |
| 2026-05-04 02:07 | 45.97838 | -119.41337 | 37842 ft | 445 kts | 314° |
| 2026-05-04 02:08 | 46.01148 | -119.47004 | 37839 ft | 445 kts | 314° |
| 2026-05-04 02:08 | 46.05123 | -119.53822 | 37804 ft | 444 kts | 314° |
| 2026-05-04 02:09 | 46.07105 | -119.57232 | 37438 ft | 443 kts | 314° |
| 2026-05-04 02:09 | 46.09074 | -119.60622 | 36962 ft | 441 kts | 313° |
| 2026-05-04 02:09 | 46.11036 | -119.64002 | 36489 ft | 441 kts | 313° |
| 2026-05-04 02:09 | 46.13008 | -119.67404 | 36039 ft | 442 kts | 313° |
| 2026-05-04 02:10 | 46.14980 | -119.70805 | 35589 ft | 443 kts | 313° |
| 2026-05-04 02:10 | 46.16955 | -119.74217 | 35149 ft | 444 kts | 313° |
| 2026-05-04 02:10 | 46.18931 | -119.77646 | 34706 ft | 444 kts | 313° |
| 2026-05-04 02:10 | 46.20905 | -119.81071 | 34281 ft | 444 kts | 313° |
| 2026-05-04 02:11 | 46.22883 | -119.84504 | 33863 ft | 445 kts | 313° |
| 2026-05-04 02:11 | 46.24860 | -119.87942 | 33380 ft | 446 kts | 313° |
| 2026-05-04 02:11 | 46.26840 | -119.91388 | 32899 ft | 447 kts | 313° |
| 2026-05-04 02:11 | 46.28830 | -119.94855 | 32423 ft | 449 kts | 313° |
| 2026-05-04 02:12 | 46.30826 | -119.98337 | 31911 ft | 450 kts | 312° |
| 2026-05-04 02:12 | 46.32826 | -120.01832 | 31395 ft | 452 kts | 312° |
| 2026-05-04 02:12 | 46.34830 | -120.05337 | 30900 ft | 453 kts | 312° |
| 2026-05-04 02:12 | 46.36811 | -120.08807 | 30420 ft | 454 kts | 312° |
| 2026-05-04 02:13 | 46.38851 | -120.12384 | 29923 ft | 455 kts | 312° |
| 2026-05-04 02:13 | 46.40842 | -120.15874 | 29380 ft | 457 kts | 312° |
| 2026-05-04 02:13 | 46.42866 | -120.19432 | 28825 ft | 458 kts | 312° |
| 2026-05-04 02:13 | 46.44897 | -120.23009 | 28284 ft | 460 kts | 311° |
| 2026-05-04 02:14 | 46.46920 | -120.26579 | 27772 ft | 454 kts | 311° |
| 2026-05-04 02:14 | 46.48900 | -120.30074 | 27265 ft | 442 kts | 311° |
| 2026-05-04 02:14 | 46.50843 | -120.33506 | 26414 ft | 438 kts | 311° |
| 2026-05-04 02:14 | 46.52765 | -120.36907 | 25631 ft | 433 kts | 311° |
| 2026-05-04 02:15 | 46.54660 | -120.40264 | 24884 ft | 425 kts | 311° |
| 2026-05-04 02:15 | 46.56507 | -120.43541 | 24428 ft | 415 kts | 311° |
| 2026-05-04 02:15 | 46.58172 | -120.46932 | 23997 ft | 411 kts | 306° |
| 2026-05-04 02:15 | 46.59778 | -120.50346 | 23562 ft | 407 kts | 307° |
| 2026-05-04 02:16 | 46.61376 | -120.53709 | 23130 ft | 402 kts | 307° |
| 2026-05-04 02:16 | 46.62963 | -120.57031 | 22704 ft | 397 kts | 307° |
| 2026-05-04 02:16 | 46.64530 | -120.60302 | 22283 ft | 392 kts | 307° |
| 2026-05-04 02:16 | 46.66078 | -120.63537 | 21862 ft | 387 kts | 307° |
| 2026-05-04 02:17 | 46.67609 | -120.66737 | 21467 ft | 383 kts | 307° |
| 2026-05-04 02:17 | 46.69124 | -120.69908 | 21058 ft | 380 kts | 307° |
| 2026-05-04 02:17 | 46.70624 | -120.73051 | 20671 ft | 376 kts | 307° |
| 2026-05-04 02:17 | 46.72109 | -120.76165 | 20281 ft | 373 kts | 307° |
| 2026-05-04 02:18 | 46.73582 | -120.79258 | 19908 ft | 370 kts | 307° |
| 2026-05-04 02:18 | 46.75041 | -120.82325 | 19564 ft | 367 kts | 307° |
| 2026-05-04 02:18 | 46.76490 | -120.85374 | 19219 ft | 365 kts | 307° |
| 2026-05-04 02:18 | 46.77933 | -120.88413 | 18868 ft | 364 kts | 307° |
| 2026-05-04 02:19 | 46.79370 | -120.91443 | 18525 ft | 362 kts | 306° |
| 2026-05-04 02:19 | 46.80800 | -120.94461 | 18208 ft | 361 kts | 306° |
| 2026-05-04 02:19 | 46.82217 | -120.97473 | 17815 ft | 359 kts | 306° |
| 2026-05-04 02:19 | 46.83621 | -121.00463 | 17429 ft | 357 kts | 306° |
| 2026-05-04 02:20 | 46.85026 | -121.03452 | 17037 ft | 356 kts | 306° |
| 2026-05-04 02:20 | 46.86420 | -121.06424 | 16659 ft | 354 kts | 306° |
| 2026-05-04 02:20 | 46.87808 | -121.09383 | 16285 ft | 352 kts | 306° |
| 2026-05-04 02:20 | 46.89188 | -121.12327 | 15908 ft | 350 kts | 306° |
| 2026-05-04 02:21 | 46.90562 | -121.15261 | 15543 ft | 349 kts | 306° |
| 2026-05-04 02:21 | 46.91913 | -121.18152 | 15189 ft | 348 kts | 306° |
| 2026-05-04 02:21 | 46.93273 | -121.21063 | 14840 ft | 346 kts | 306° |
| 2026-05-04 02:21 | 46.94624 | -121.23961 | 14468 ft | 343 kts | 306° |
| 2026-05-04 02:22 | 46.95963 | -121.26835 | 14134 ft | 341 kts | 306° |
| 2026-05-04 02:22 | 46.97294 | -121.29695 | 13788 ft | 339 kts | 305° |
| 2026-05-04 02:22 | 46.98614 | -121.32536 | 13416 ft | 336 kts | 306° |
| 2026-05-04 02:22 | 46.99920 | -121.35348 | 13039 ft | 334 kts | 306° |
| 2026-05-04 02:23 | 47.01222 | -121.38155 | 12655 ft | 332 kts | 305° |
| 2026-05-04 02:23 | 47.02516 | -121.40947 | 12283 ft | 330 kts | 305° |
| 2026-05-04 02:23 | 47.03798 | -121.43716 | 11999 ft | 325 kts | 305° |
| 2026-05-04 02:23 | 47.05041 | -121.46404 | 11979 ft | 312 kts | 305° |
| 2026-05-04 02:24 | 47.06233 | -121.48981 | 11976 ft | 298 kts | 306° |
| 2026-05-04 02:24 | 47.07380 | -121.51467 | 11961 ft | 292 kts | 304° |
| 2026-05-04 02:24 | 47.08520 | -121.53941 | 11949 ft | 292 kts | 304° |
| 2026-05-04 02:24 | 47.09659 | -121.56416 | 11848 ft | 293 kts | 304° |
| 2026-05-04 02:25 | 47.10797 | -121.58889 | 11604 ft | 292 kts | 304° |
| 2026-05-04 02:25 | 47.11929 | -121.61351 | 11360 ft | 290 kts | 304° |
| 2026-05-04 02:25 | 47.13054 | -121.63801 | 11116 ft | 289 kts | 304° |
| 2026-05-04 02:25 | 47.14173 | -121.66237 | 10881 ft | 288 kts | 304° |
| 2026-05-04 02:26 | 47.15293 | -121.68679 | 10637 ft | 288 kts | 303° |
| 2026-05-04 02:26 | 47.16411 | -121.71117 | 10401 ft | 287 kts | 303° |
| 2026-05-04 02:26 | 47.17523 | -121.73547 | 10150 ft | 287 kts | 303° |
| 2026-05-04 02:26 | 47.18635 | -121.75977 | 9904 ft | 286 kts | 303° |
| 2026-05-04 02:27 | 47.19743 | -121.78400 | 9620 ft | 285 kts | 303° |
| 2026-05-04 02:27 | 47.20845 | -121.80812 | 9349 ft | 284 kts | 303° |
| 2026-05-04 02:27 | 47.21927 | -121.83182 | 9063 ft | 282 kts | 303° |
| 2026-05-04 02:27 | 47.23012 | -121.85562 | 8795 ft | 279 kts | 303° |
| 2026-05-04 02:28 | 47.24087 | -121.87921 | 8515 ft | 276 kts | 303° |
| 2026-05-04 02:28 | 47.25146 | -121.90246 | 8232 ft | 271 kts | 303° |
| 2026-05-04 02:28 | 47.26185 | -121.92533 | 7963 ft | 268 kts | 304° |
| 2026-05-04 02:28 | 47.27216 | -121.94800 | 7679 ft | 266 kts | 304° |
| 2026-05-04 02:29 | 47.28236 | -121.97046 | 7434 ft | 264 kts | 304° |
| 2026-05-04 02:29 | 47.29254 | -121.99288 | 7170 ft | 263 kts | 304° |
| 2026-05-04 02:29 | 47.30268 | -122.01526 | 6908 ft | 262 kts | 304° |
| 2026-05-04 02:29 | 47.31281 | -122.03760 | 6661 ft | 262 kts | 304° |
| 2026-05-04 02:30 | 47.32291 | -122.05988 | 6407 ft | 260 kts | 304° |
| 2026-05-04 02:30 | 47.33279 | -122.08175 | 6141 ft | 253 kts | 304° |
| 2026-05-04 02:30 | 47.34243 | -122.10319 | 5868 ft | 249 kts | 302° |
| 2026-05-04 02:30 | 47.34735 | -122.12721 | 5561 ft | 249 kts | 269° |
| 2026-05-04 02:31 | 47.34161 | -122.15090 | 5358 ft | 250 kts | 233° |
| 2026-05-04 02:31 | 47.32736 | -122.16515 | 5120 ft | 252 kts | 198° |
| 2026-05-04 02:31 | 47.31019 | -122.17014 | 4970 ft | 253 kts | 187° |
| 2026-05-04 02:31 | 47.29258 | -122.17240 | 4927 ft | 255 kts | 185° |
| 2026-05-04 02:32 | 47.27484 | -122.17432 | 4876 ft | 255 kts | 185° |
| 2026-05-04 02:32 | 47.25718 | -122.17622 | 4677 ft | 254 kts | 185° |
| 2026-05-04 02:32 | 47.23970 | -122.17821 | 4438 ft | 250 kts | 187° |
| 2026-05-04 02:32 | 47.22407 | -122.18738 | 4169 ft | 242 kts | 223° |
| 2026-05-04 02:33 | 47.21599 | -122.20748 | 3984 ft | 228 kts | 263° |
| 2026-05-04 02:33 | 47.21667 | -122.23001 | 3916 ft | 221 kts | 291° |
| 2026-05-04 02:33 | 47.22303 | -122.25055 | 3916 ft | 222 kts | 300° |
| 2026-05-04 02:33 | 47.23018 | -122.27077 | 3915 ft | 223 kts | 300° |
| 2026-05-04 02:34 | 47.23735 | -122.29093 | 3911 ft | 222 kts | 300° |
| 2026-05-04 02:34 | 47.24661 | -122.30844 | 3864 ft | 213 kts | 326° |
| 2026-05-04 02:34 | 47.25982 | -122.31688 | 3818 ft | 207 kts | 348° |
| 2026-05-04 02:34 | 47.27406 | -122.31943 | 3562 ft | 206 kts | 359° |
| 2026-05-04 02:35 | 47.28836 | -122.31953 | 3303 ft | 205 kts | 1° |
| 2026-05-04 02:35 | 47.30248 | -122.31933 | 3069 ft | 199 kts | 1° |
| 2026-05-04 02:35 | 47.31624 | -122.31920 | 2788 ft | 196 kts | 0° |
| 2026-05-04 02:35 | 47.32971 | -122.31906 | 2527 ft | 191 kts | 0° |
| 2026-05-04 02:36 | 47.34267 | -122.31894 | 2292 ft | 183 kts | 0° |
| 2026-05-04 02:36 | 47.35490 | -122.31883 | 2054 ft | 169 kts | 360° |
| 2026-05-04 02:36 | 47.36648 | -122.31874 | 1829 ft | 161 kts | 0° |
| 2026-05-04 02:36 | 47.37706 | -122.31864 | 1645 ft | 144 kts | 0° |
| 2026-05-04 02:37 | 47.38696 | -122.31854 | 1453 ft | 142 kts | 1° |
| 2026-05-04 02:37 | 47.39682 | -122.31845 | 1261 ft | 141 kts | 0° |
| 2026-05-04 02:37 | 47.40670 | -122.31835 | 1088 ft | 142 kts | 0° |
| 2026-05-04 02:37 | 47.41655 | -122.31836 | 894 ft | 140 kts | 0° |
| 2026-05-04 02:38 | 47.42627 | -122.31829 | 727 ft | 141 kts | 0° |
| 2026-05-04 02:38 | 47.43617 | -122.31823 | 547 ft | 142 kts | 359° |
| 2026-05-04 02:38 | 47.44583 | -122.31805 | 434 ft | 130 kts | 0° |
| 2026-05-04 02:38 | 47.45336 | -122.31795 | 421 ft | 77 kts | 0° |
| 2026-05-04 02:39 | 47.45694 | -122.31790 | 425 ft | 33 kts | 4° |
| 2026-05-04 02:39 | 47.45844 | -122.31734 | 430 ft | 15 kts | 24° |
| 2026-05-04 02:39 | 47.45918 | -122.31672 | 432 ft | 10 kts | 35° |
| 2026-05-04 02:39 | 47.45965 | -122.31603 | 428 ft | 10 kts | 53° |
| 2026-05-04 02:40 | 47.45999 | -122.31503 | 431 ft | 11 kts | 73° |
| 2026-05-04 02:40 | 47.46007 | -122.31383 | 426 ft | 13 kts | 91° |
| 2026-05-04 02:40 | 47.46006 | -122.31233 | 423 ft | 15 kts | 90° |
| 2026-05-04 02:40 | 47.46006 | -122.31063 | 423 ft | 18 kts | 89° |
| 2026-05-04 02:41 | 47.46004 | -122.30898 | 426 ft | 17 kts | 90° |
| 2026-05-04 02:41 | 47.46004 | -122.30729 | 424 ft | 13 kts | 90° |
| 2026-05-04 02:41 | 47.45992 | -122.30633 | 422 ft | 8 kts | 129° |
| 2026-05-04 02:41 | 47.45936 | -122.30613 | 426 ft | 10 kts | 180° |
| 2026-05-04 02:42 | 47.45858 | -122.30614 | 420 ft | 13 kts | 181° |
| 2026-05-04 02:42 | 47.45750 | -122.30615 | 430 ft | 17 kts | 181° |
| 2026-05-04 02:42 | 47.45625 | -122.30616 | 429 ft | 19 kts | 180° |
| 2026-05-04 02:42 | 47.45488 | -122.30617 | 427 ft | 21 kts | 180° |
| 2026-05-04 02:43 | 47.45348 | -122.30619 | 428 ft | 18 kts | 180° |
| 2026-05-04 02:43 | 47.45215 | -122.30619 | 427 ft | 20 kts | 180° |
| 2026-05-04 02:43 | 47.45096 | -122.30621 | 427 ft | 12 kts | 180° |
| 2026-05-04 02:43 | 47.45003 | -122.30621 | 431 ft | 15 kts | 180° |
| 2026-05-04 02:44 | 47.44893 | -122.30622 | 420 ft | 16 kts | 180° |
| 2026-05-04 02:44 | 47.44798 | -122.30623 | 430 ft | 12 kts | 181° |
| 2026-05-04 02:44 | 47.44754 | -122.30546 | 427 ft | 11 kts | 88° |
| 2026-05-04 02:44 | 47.44754 | -122.30414 | 422 ft | 14 kts | 95° |
| 2026-05-04 02:45 | 47.44716 | -122.30305 | 423 ft | 12 kts | 134° |
| 2026-05-04 02:45 | 47.44672 | -122.30196 | 431 ft | 13 kts | 98° |
| 2026-05-04 02:45 | 47.44683 | -122.30095 | 431 ft | 7 kts | 74° |
| 2026-05-04 02:45 | 47.44665 | -122.30039 | 430 ft | 7 kts | 139° |
| 2026-05-04 02:46 | 47.44642 | -122.30011 | 431 ft | 2 kts | 142° |
| 2026-05-04 02:46 | 47.44640 | -122.30009 | 432 ft | 0 kts | 142° |